Wes Sellars — WDF9302 — position and weather

sailwx.info

Track history (hours):
 
Tides and Currents Weather Stations Pressure Air Temp Water Temp Dewpoint Dewpoint Depression Visibility Wind Speed Wind Dir Waves Ship Positions

Wes Sellars

Owner: Florida Marine, LLC, Mandeville, LA. More information available from US FCC via Universal Licensing System and Coast Guard Vessel Documentation Center.

Last reported at 2015-Aug-29 06:06 UTC. Time now 2015-Aug-31 13:25 UTC.
Position N 29°23' W 094°48'.

Length 27 m.

Type: Towing. MMSI: 367503760.

Date/timePositionNaut miles runAvg speedWind from/ knotsBaromVisibWave heightAir tempDewpointWater temp
2015-Aug-29 06:06N 29°23' W 094°48'4 8.0
2015-Aug-29 05:33N 29°26' W 094°50'8 7.9
2015-Aug-29 04:33N 29°33' W 094°55'7 7.2
2015-Aug-29 03:33N 29°40' W 094°59'7 6.6
2015-Aug-29 02:33N 29°45' W 095°04'3 2.3
2015-Aug-29 01:22N 29°47' W 095°04'0 0.1
2015-Aug-29 00:29N 29°47' W 095°04'1 1.2
2015-Aug-28 23:33N 29°46' W 095°05'8 6.9
2015-Aug-28 22:25N 29°43' W 095°13'1 0.4
2015-Aug-28 20:04N 29°43' W 095°14'0 0.1
2015-Aug-28 19:33N 29°44' W 095°14'0 0.1
2015-Aug-28 18:33N 29°44' W 095°14'0 0.0
2015-Aug-28 17:25N 29°44' W 095°14'0 0.0
2015-Aug-28 10:31N 29°43' W 095°14'0 0.0
2015-Aug-28 09:33N 29°43' W 095°14'0 0.1
2015-Aug-28 08:33N 29°43' W 095°14'0 0.0
2015-Aug-28 04:08N 29°43' W 095°14'0 0.0
2015-Aug-27 21:30N 29°43' W 095°14'0 0.0
2015-Aug-27 17:31N 29°43' W 095°14'0 0.0
2015-Aug-27 15:33N 29°43' W 095°14'0 0.2
2015-Aug-27 14:23N 29°44' W 095°14'4 5.0
2015-Aug-27 13:33N 29°44' W 095°09'5 5.4
2015-Aug-27 12:33N 29°47' W 095°04'0 0.1
2015-Aug-27 10:33N 29°47' W 095°04'0 0.0
2015-Aug-27 09:26N 29°47' W 095°04'0 0.1
2015-Aug-27 08:34N 29°47' W 095°04'0 0.0
2015-Aug-27 07:33N 29°47' W 095°04'0 0.0
2015-Aug-27 06:33N 29°47' W 095°04'2 1.7
2015-Aug-27 05:34N 29°46' W 095°05'1 0.3
2015-Aug-27 01:25N 29°46' W 095°06'1 1.4
2015-Aug-27 00:31N 29°46' W 095°05'1 1.3
2015-Aug-26 23:33N 29°46' W 095°06'0 0.0
2015-Aug-26 22:21N 29°46' W 095°06'0 0.0
2015-Aug-26 21:31N 29°46' W 095°06'0 0.0
2015-Aug-26 19:10N 29°46' W 095°06'3 5.1
2015-Aug-26 18:32N 29°44' W 095°09'2 1.5
2015-Aug-26 17:04N 29°45' W 095°11'3 6.4
2015-Aug-26 16:33N 29°44' W 095°08'4 4.1
2015-Aug-26 15:31N 29°47' W 095°04'2 0.4
2015-Aug-26 11:23N 29°46' W 095°06'0 0.0
2015-Aug-26 06:30N 29°46' W 095°06'0 0.0
2015-Aug-26 04:12N 29°46' W 095°06'0 0.0
2015-Aug-26 02:22N 29°46' W 095°06'0 0.0
2015-Aug-26 01:26N 29°46' W 095°06'0 0.0
2015-Aug-26 00:31N 29°46' W 095°06'0 0.0
2015-Aug-25 21:27N 29°46' W 095°06'2 2.0
2015-Aug-25 20:31N 29°47' W 095°04'2 1.7
2015-Aug-25 19:21N 29°46' W 095°06'0 0.1
2015-Aug-25 14:16N 29°46' W 095°06'0 0.0
2015-Aug-25 07:09N 29°46' W 095°06'0 0.0
2015-Aug-25 05:34N 29°46' W 095°06'1 0.4
2015-Aug-25 02:33N 29°46' W 095°05'1 1.4
2015-Aug-25 01:34N 29°47' W 095°04'0 0.3
2015-Aug-25 00:33N 29°47' W 095°04'1 0.6
2015-Aug-24 22:33N 29°46' W 095°05'7 6.9
2015-Aug-24 21:33N 29°41' W 094°59'9 8.5
2015-Aug-24 20:33N 29°34' W 094°55'9 8.5
2015-Aug-24 19:32N 29°26' W 094°50'4 4.0
2015-Aug-24 18:25N 29°23' W 094°46'0 0.0
2015-Aug-23 21:09N 29°23' W 094°46'198 3.8
2015-Aug-21 17:14N 29°37' W 090°59'4 5.3
2015-Aug-21 16:31N 29°34' W 090°56'5 5.5
2015-Aug-21 15:33N 29°32' W 090°51'5 5.2
2015-Aug-21 14:33N 29°34' W 090°45'3 3.1
2015-Aug-21 13:33N 29°36' W 090°43'1 1.3
2015-Aug-21 12:33N 29°36' W 090°41'3 3.0
2015-Aug-21 11:33N 29°35' W 090°38'5 5.0
2015-Aug-21 10:33N 29°34' W 090°33'10 4.6
2015-Aug-21 08:19N 29°37' W 090°21'29 1.2
2015-Aug-20 08:14N 29°55' W 089°55'  
Track history (hours):
 
Tides and Currents Weather Stations Pressure Air Temp Water Temp Dewpoint Dewpoint Depression Visibility Wind Speed Wind Dir Waves Ship Positions

Wes Sellars

Owner: Florida Marine, LLC, Mandeville, LA. More information available from US FCC via Universal Licensing System and Coast Guard Vessel Documentation Center.

Last reported at 2015-Aug-29 06:06 UTC. Time now 2015-Aug-31 13:25 UTC.
Position N 29°23' W 094°48'.

Length 27 m.

Type: Towing. MMSI: 367503760.

Date/timePositionNaut miles runAvg speedWind from/ knotsBaromVisibWave heightAir tempDewpointWater temp
2015-Aug-29 06:06N 29°23' W 094°48'4 8.0
2015-Aug-29 05:33N 29°26' W 094°50'8 7.9
2015-Aug-29 04:33N 29°33' W 094°55'7 7.2
2015-Aug-29 03:33N 29°40' W 094°59'7 6.6
2015-Aug-29 02:33N 29°45' W 095°04'3 2.3
2015-Aug-29 01:22N 29°47' W 095°04'0 0.1
2015-Aug-29 00:29N 29°47' W 095°04'1 1.2
2015-Aug-28 23:33N 29°46' W 095°05'8 6.9
2015-Aug-28 22:25N 29°43' W 095°13'1 0.4
2015-Aug-28 20:04N 29°43' W 095°14'0 0.1
2015-Aug-28 19:33N 29°44' W 095°14'0 0.1
2015-Aug-28 18:33N 29°44' W 095°14'0 0.0
2015-Aug-28 17:25N 29°44' W 095°14'0 0.0
2015-Aug-28 10:31N 29°43' W 095°14'0 0.0
2015-Aug-28 09:33N 29°43' W 095°14'0 0.1
2015-Aug-28 08:33N 29°43' W 095°14'0 0.0
2015-Aug-28 04:08N 29°43' W 095°14'0 0.0
2015-Aug-27 21:30N 29°43' W 095°14'0 0.0
2015-Aug-27 17:31N 29°43' W 095°14'0 0.0
2015-Aug-27 15:33N 29°43' W 095°14'0 0.2
2015-Aug-27 14:23N 29°44' W 095°14'4 5.0
2015-Aug-27 13:33N 29°44' W 095°09'5 5.4
2015-Aug-27 12:33N 29°47' W 095°04'0 0.1
2015-Aug-27 10:33N 29°47' W 095°04'0 0.0
2015-Aug-27 09:26N 29°47' W 095°04'0 0.1
2015-Aug-27 08:34N 29°47' W 095°04'0 0.0
2015-Aug-27 07:33N 29°47' W 095°04'0 0.0
2015-Aug-27 06:33N 29°47' W 095°04'2 1.7
2015-Aug-27 05:34N 29°46' W 095°05'1 0.3
2015-Aug-27 01:25N 29°46' W 095°06'1 1.4
2015-Aug-27 00:31N 29°46' W 095°05'1 1.3
2015-Aug-26 23:33N 29°46' W 095°06'0 0.0
2015-Aug-26 22:21N 29°46' W 095°06'0 0.0
2015-Aug-26 21:31N 29°46' W 095°06'0 0.0
2015-Aug-26 19:10N 29°46' W 095°06'3 5.1
2015-Aug-26 18:32N 29°44' W 095°09'2 1.5
2015-Aug-26 17:04N 29°45' W 095°11'3 6.4
2015-Aug-26 16:33N 29°44' W 095°08'4 4.1
2015-Aug-26 15:31N 29°47' W 095°04'2 0.4
2015-Aug-26 11:23N 29°46' W 095°06'0 0.0
2015-Aug-26 06:30N 29°46' W 095°06'0 0.0
2015-Aug-26 04:12N 29°46' W 095°06'0 0.0
2015-Aug-26 02:22N 29°46' W 095°06'0 0.0
2015-Aug-26 01:26N 29°46' W 095°06'0 0.0
2015-Aug-26 00:31N 29°46' W 095°06'0 0.0
2015-Aug-25 21:27N 29°46' W 095°06'2 2.0
2015-Aug-25 20:31N 29°47' W 095°04'2 1.7
2015-Aug-25 19:21N 29°46' W 095°06'0 0.1
2015-Aug-25 14:16N 29°46' W 095°06'0 0.0
2015-Aug-25 07:09N 29°46' W 095°06'0 0.0
2015-Aug-25 05:34N 29°46' W 095°06'1 0.4
2015-Aug-25 02:33N 29°46' W 095°05'1 1.4
2015-Aug-25 01:34N 29°47' W 095°04'0 0.3
2015-Aug-25 00:33N 29°47' W 095°04'1 0.6
2015-Aug-24 22:33N 29°46' W 095°05'7 6.9
2015-Aug-24 21:33N 29°41' W 094°59'9 8.5
2015-Aug-24 20:33N 29°34' W 094°55'9 8.5
2015-Aug-24 19:32N 29°26' W 094°50'4 4.0
2015-Aug-24 18:25N 29°23' W 094°46'0 0.0
2015-Aug-23 21:09N 29°23' W 094°46'198 3.8
2015-Aug-21 17:14N 29°37' W 090°59'4 5.3
2015-Aug-21 16:31N 29°34' W 090°56'5 5.5
2015-Aug-21 15:33N 29°32' W 090°51'5 5.2
2015-Aug-21 14:33N 29°34' W 090°45'3 3.1
2015-Aug-21 13:33N 29°36' W 090°43'1 1.3
2015-Aug-21 12:33N 29°36' W 090°41'3 3.0
2015-Aug-21 11:33N 29°35' W 090°38'5 5.0
2015-Aug-21 10:33N 29°34' W 090°33'10 4.6
2015-Aug-21 08:19N 29°37' W 090°21'29 1.2
2015-Aug-20 08:14N 29°55' W 089°55'  

Dump ship's entire track history